Flight Track Log - Related Links

Times and Time Zones

All times are in EDT time to prevent confusion due to time zone crossing. See the SKW2953 flight status page for this flight to view local times or setup timezone preferences in your user account.

Time Position Orientation Groundspeed Altitude Reporting Facility
EDT Latitude Longitude Course Direction KTS MPH feet Rate Location/Type
Tue 08:29:40 PM 39.1333 -108.5667 284° West 162 186 6,200  Level Denver TRACON
Tue 08:30:47 PM 39.1500 -108.6500 219° Southwest 227 261 8,400 1,763 Climbing Denver TRACON
Tue 08:32:20 PM 39.0814 -108.7228 185° South 217 250 10,900 1,725 Climbing Denver Center
Tue 08:33:20 PM 38.9914 -108.7331 188° South 283 326 12,800 2,000 Climbing Denver Center
Tue 08:34:20 PM 38.9036 -108.7489 185° South 311 358 14,900 1,850 Climbing Denver Center
Tue 08:35:20 PM 38.8158 -108.7594 181° South 322 371 16,500 1,550 Climbing Denver Center
Tue 08:36:20 PM 38.7325 -108.7619 188° South 328 377 18,000 1,600 Climbing Denver Center
Tue 08:37:20 PM 38.6278 -108.7797 185° South 340 391 19,700 1,550 Climbing Denver Center
Tue 08:38:20 PM 38.5294 -108.7897 184° South 356 410 21,100 1,300 Climbing Denver Center
Tue 08:39:20 PM 38.4253 -108.7997 186° South 369 425 22,300 1,000 Climbing Denver Center
Tue 08:40:20 PM 38.3289 -108.8125 185° South 375 432 23,100 850 Climbing Denver Center
Tue 08:41:20 PM 38.2056 -108.8267 184° South 405 466 24,000 900 Climbing Denver Center
Tue 08:42:20 PM 38.0928 -108.8361 186° South 413 475 24,900 1,100 Climbing Denver Center
Tue 08:43:20 PM 37.9778 -108.8508 185° South 414 476 26,200 1,200 Climbing Denver Center
Tue 08:44:20 PM 37.8672 -108.8631 184° South 414 476 27,300 1,100 Climbing Denver Center
Tue 08:45:20 PM 37.7544 -108.8722 186° South 414 476 28,400 850 Climbing Denver Center
Tue 08:46:20 PM 37.6497 -108.8872 184° South 414 476 29,000 300 Climbing Denver Center
Tue 08:47:20 PM 37.5203 -108.8986 185° South 426 490 29,000 100 Level Denver Center
Tue 08:48:20 PM 37.3972 -108.9128 185° South 444 511 29,200 500 Climbing Denver Center
Tue 08:49:20 PM 37.2822 -108.9244 185° South 451 519 30,000 400 Climbing Denver Center
Tue 08:50:20 PM 37.1589 -108.9383 184° South 457 526 30,000  Level Denver Center
Tue 08:51:20 PM 37.0189 -108.9519 185° South 462 532 30,000  Level Denver Center
Tue 08:52:20 PM 36.8917 -108.9658 185° South 462 532 30,000  Level Denver Center
Tue 08:53:20 PM 36.7767 -108.9775 185° South 462 532 30,000  Level Denver Center
Tue 08:54:20 PM 36.6492 -108.9911 185° South 462 532 30,000  Level Denver Center
Tue 08:55:20 PM 36.5136 -109.0044 184° South 462 532 30,000  Level Denver Center
Tue 08:57:17 PM 36.2656 -109.0281 184° South 491 565 30,000  Level Albuquerque Center
Tue 08:58:17 PM 36.1528 -109.0383 184° South 463 533 30,000  Level Albuquerque Center
Tue 08:59:17 PM 36.0128 -109.0508 185° South 458 527 30,000  Level Albuquerque Center
Tue 09:00:17 PM 35.8875 -109.0636 184° South 463 533 30,000  Level Albuquerque Center
Tue 09:01:17 PM 35.7747 -109.0739 184° South 463 533 30,000  Level Albuquerque Center
Tue 09:02:17 PM 35.6347 -109.0864 185° South 463 533 30,000  Level Albuquerque Center
Tue 09:03:17 PM 35.5072 -109.1014 221° Southwest 463 533 30,000  Level Albuquerque Center
Tue 09:04:17 PM 35.4286 -109.1839 255° West 406 467 30,000  Level Albuquerque Center
Tue 09:05:17 PM 35.3994 -109.3181 260° West 400 460 30,000  Level Albuquerque Center
Tue 09:06:17 PM 35.3781 -109.4706 261° West 416 479 30,000  Level Albuquerque Center
Tue 09:07:17 PM 35.3611 -109.6050 262° West 416 479 30,000  Level Albuquerque Center
Tue 09:08:17 PM 35.3461 -109.7294 262° West 410 472 30,000  Level Albuquerque Center
Tue 09:09:17 PM 35.3308 -109.8664 262° West 410 472 30,000  Level Albuquerque Center
Tue 09:10:17 PM 35.3128 -110.0186 262° West 410 472 30,000  Level Albuquerque Center
Tue 09:11:17 PM 35.2972 -110.1531 264° West 410 472 30,000  Level Albuquerque Center
Tue 09:12:17 PM 35.2861 -110.2772 262° West 410 472 30,000 -300 Level Albuquerque Center
Tue 09:13:17 PM 35.2703 -110.4117 263° West 410 472 29,400 -900 Descending Albuquerque Center
Tue 09:14:17 PM 35.2536 -110.5686 265° West 410 472 28,200 -1,050 Descending Albuquerque Center
Tue 09:15:17 PM 35.2436 -110.7056 264° West 415 478 27,300 -950 Descending Albuquerque Center
Tue 09:16:17 PM 35.2336 -110.8297 253° West 410 472 26,300 -950 Descending Albuquerque Center
Tue 09:17:17 PM 35.2008 -110.9581 249° West 405 466 25,400 -1,000 Descending Albuquerque Center
Tue 09:18:17 PM 35.1567 -111.1008 248° West 405 466 24,300 -700 Descending Albuquerque Center
Tue 09:19:17 PM 35.1150 -111.2283 249° West 410 472 24,000 -150 Descending Albuquerque Center
Tue 09:20:17 PM 35.0756 -111.3533 248° West 405 466 24,000  Level Albuquerque Center
Tue 09:21:17 PM 35.0383 -111.4683 231° Southwest 405 466 24,000  Level Albuquerque Center
Tue 09:22:17 PM 34.9700 -111.5714 227° Southwest 400 460 24,000  Level Albuquerque Center
Tue 09:23:17 PM 34.8869 -111.6783 225° Southwest 405 466 24,000  Level Albuquerque Center
Tue 09:24:17 PM 34.8083 -111.7728 226° Southwest 405 466 24,000  Level Albuquerque Center
Tue 09:25:17 PM 34.7294 -111.8722 226° Southwest 400 460 24,000 -650 Level Albuquerque Center
Tue 09:26:17 PM 34.6528 -111.9689 227° Southwest 405 466 22,700 -1,400 Descending Albuquerque Center
Tue 09:27:17 PM 34.5825 -112.0608 226° Southwest 399 459 21,200 -1,500 Descending Albuquerque Center
Tue 09:28:17 PM 34.5186 -112.1403 221° Southwest 366 421 19,700 -1,600 Descending Albuquerque Center
Tue 09:29:17 PM 34.4467 -112.2167 176° South 354 407 18,000 -1,450 Descending Albuquerque Center
Tue 09:30:17 PM 34.3594 -112.2092 170° South 303 349 16,800 -1,100 Descending Albuquerque Center
Tue 09:31:17 PM 34.2789 -112.1919 167° South 303 349 15,800 -1,150 Descending Albuquerque Center
Tue 09:32:17 PM 34.1900 -112.1667 168° South 318 366 14,500 -1,250 Descending Albuquerque Center
Tue 09:33:17 PM 34.1053 -112.1442 167° South 324 373 13,300 -1,200 Descending Albuquerque Center
Tue 09:34:17 PM 34.0228 -112.1217 169° South 324 373 12,100 -1,150 Descending Albuquerque Center
Tue 09:35:17 PM 33.9422 -112.1022 167° South 313 360 11,000 -550 Descending Albuquerque Center
Tue 09:36:17 PM 33.8597 -112.0800 169° South 308 354 11,000 -379 Level Albuquerque Center
Tue 09:36:52 PM 33.8000 -112.0667 171° South 302 348 10,400 -632 Descending Phoenix TRACON
Tue 09:37:52 PM 33.7167 -112.0500 171° South 307 353 10,000 -200 Descending Phoenix TRACON
Tue 09:38:52 PM 33.6333 -112.0333 140° Southeast 302 348 10,000 -99 Level Phoenix TRACON
Tue 09:39:53 PM 33.5833 -111.9833 132° Southeast 259 298 9,800 -793 Descending Phoenix TRACON
Tue 09:40:53 PM 33.5333 -111.9167 90° East 266 306 8,400 -1,143 Descending Phoenix TRACON
Tue 09:41:59 PM 33.5333 -111.8167 112° Southeast 237 273 7,400 -952 Descending Phoenix TRACON
Tue 09:42:59 PM 33.5167 -111.7667 180° South 190 219 6,400 -1,450 Descending Phoenix TRACON
Tue 09:43:59 PM 33.4667 -111.7667 253° West 188 216 4,500 -1,300 Descending Phoenix TRACON
Tue 09:44:59 PM 33.4500 -111.8333 253° West 185 213 3,800 -700 Descending Phoenix TRACON

Login

Don't have an account? Register now (free) for customized features, flight alerts, and more!